createdAt,value
2023-03-20T03:58:57.268Z,1011.65
2023-03-20T03:59:57.213Z,1011.58
2023-03-20T04:06:03.189Z,1011.55
2023-03-20T04:07:03.191Z,1011.56
2023-03-20T04:08:03.179Z,1011.57
2023-03-20T04:09:03.180Z,1011.53
2023-03-20T04:10:03.167Z,1011.54
2023-03-20T04:11:03.183Z,1011.57
2023-03-20T04:12:03.150Z,1011.56
2023-03-20T04:13:03.136Z,1011.58
2023-03-20T04:14:03.141Z,1011.58
2023-03-20T04:15:03.645Z,1011.60
2023-03-20T04:16:03.155Z,1011.63
2023-03-20T04:17:03.115Z,1011.66
2023-03-20T04:18:03.135Z,1011.62
2023-03-20T04:19:03.120Z,1011.58
2023-03-20T04:20:03.116Z,1011.58
2023-03-20T04:21:03.123Z,1011.55
2023-03-20T04:22:03.093Z,1011.59
2023-03-20T04:23:03.109Z,1011.58
2023-03-20T04:24:03.100Z,1011.56
2023-03-20T04:25:03.084Z,1011.60
2023-03-20T04:26:03.111Z,1011.56
2023-03-20T04:27:03.194Z,1011.55
2023-03-20T04:28:03.088Z,1011.59
2023-03-20T04:29:03.085Z,1011.59
2023-03-20T04:30:03.097Z,1011.60
2023-03-20T04:31:03.063Z,1011.61
2023-03-20T04:32:03.052Z,1011.66
2023-03-20T04:33:03.111Z,1011.64
2023-03-20T04:34:03.062Z,1011.62
2023-03-20T04:35:03.050Z,1011.60
2023-03-20T04:36:03.135Z,1011.63
2023-03-20T04:37:03.035Z,1011.63
2023-03-20T04:38:03.062Z,1011.65
2023-03-20T04:39:03.043Z,1011.62
2023-03-20T04:40:03.046Z,1011.66
2023-03-20T04:41:03.018Z,1011.64
2023-03-20T04:42:03.015Z,1011.66
2023-03-20T04:43:03.020Z,1011.67
2023-03-20T04:44:03.029Z,1011.64
2023-03-20T04:45:02.997Z,1011.65
2023-03-20T04:46:03.109Z,1011.61
2023-03-20T04:47:02.997Z,1011.57
2023-03-20T04:48:03.012Z,1011.57
2023-03-20T04:49:02.984Z,1011.59
2023-03-20T04:50:03.010Z,1011.56
2023-03-20T04:51:03.011Z,1011.59
2023-03-20T04:52:02.982Z,1011.58
2023-03-20T04:53:02.985Z,1011.59
2023-03-20T04:54:02.963Z,1011.58
2023-03-20T04:55:02.959Z,1011.62
2023-03-20T04:56:02.962Z,1011.57
2023-03-20T04:57:02.950Z,1011.60
2023-03-20T04:58:02.976Z,1011.61
2023-03-20T04:59:02.944Z,1011.66
2023-03-20T05:00:02.932Z,1011.65
2023-03-20T05:01:02.984Z,1011.64
2023-03-20T05:02:02.963Z,1011.63
2023-03-20T05:03:02.998Z,1011.64
2023-03-20T05:04:02.987Z,1011.61
2023-03-20T05:05:02.946Z,1011.64
2023-03-20T05:06:02.927Z,1011.59
2023-03-20T05:07:02.928Z,1011.63
2023-03-20T05:08:02.930Z,1011.63
2023-03-20T05:09:02.912Z,1011.61
2023-03-20T05:10:02.912Z,1011.60
2023-03-20T05:11:02.894Z,1011.66
2023-03-20T05:12:02.897Z,1011.62
2023-03-20T05:13:02.884Z,1011.66
2023-03-20T05:14:02.882Z,1011.63
2023-03-20T05:15:02.889Z,1011.65
2023-03-20T05:16:02.883Z,1011.66
2023-03-20T05:17:03.005Z,1011.64
2023-03-20T05:18:02.898Z,1011.70
2023-03-20T05:19:02.873Z,1011.68
2023-03-20T05:20:02.863Z,1011.70
2023-03-20T05:21:02.867Z,1011.71
2023-03-20T05:22:02.867Z,1011.68
2023-03-20T05:23:05.844Z,1011.68
2023-03-20T05:24:02.839Z,1011.66
2023-03-20T05:25:02.835Z,1011.71
2023-03-20T05:26:02.841Z,1011.69
2023-03-20T05:27:02.992Z,1011.64
2023-03-20T05:28:02.863Z,1011.67
2023-03-20T05:29:02.837Z,1011.67
2023-03-20T05:30:02.829Z,1011.72
2023-03-20T05:31:03.015Z,1011.71
2023-03-20T05:32:02.848Z,1011.73
2023-03-20T05:33:02.827Z,1011.75
2023-03-20T05:34:02.858Z,1011.79
2023-03-20T05:35:02.805Z,1011.80
2023-03-20T05:36:02.883Z,1011.81
2023-03-20T05:37:02.814Z,1011.79
2023-03-20T05:38:02.814Z,1011.79
2023-03-20T05:39:02.862Z,1011.80
2023-03-20T05:40:02.787Z,1011.81
2023-03-20T05:41:02.832Z,1011.77
2023-03-20T05:42:02.811Z,1011.75
2023-03-20T05:43:02.773Z,1011.77
2023-03-20T05:44:02.799Z,1011.75
2023-03-20T05:45:02.766Z,1011.77
2023-03-20T05:46:02.838Z,1011.77
2023-03-20T05:47:02.795Z,1011.73
2023-03-20T05:48:02.772Z,1011.75
2023-03-20T05:49:02.764Z,1011.75
2023-03-20T05:50:02.836Z,1011.83
2023-03-20T05:51:02.749Z,1011.92
2023-03-20T05:52:02.768Z,1011.94
2023-03-20T05:53:02.760Z,1011.94
2023-03-20T05:54:02.725Z,1011.93
2023-03-20T05:55:02.727Z,1011.90
2023-03-20T05:56:02.720Z,1011.91
2023-03-20T05:57:02.826Z,1011.93
2023-03-20T05:58:02.761Z,1011.92
2023-03-20T05:59:02.741Z,1011.91
2023-03-20T06:00:02.758Z,1011.88
2023-03-20T06:01:02.709Z,1011.85
2023-03-20T06:02:02.714Z,1011.80
2023-03-20T06:03:02.815Z,1011.82
2023-03-20T06:04:02.751Z,1011.84
2023-03-20T06:05:02.691Z,1011.82
2023-03-20T06:06:02.697Z,1011.82
2023-03-20T06:07:02.693Z,1011.78
2023-03-20T06:08:02.717Z,1011.83
2023-03-20T06:09:02.696Z,1011.85
2023-03-20T06:10:02.705Z,1011.80
2023-03-20T06:11:02.671Z,1011.82
2023-03-20T06:12:02.676Z,1011.79
2023-03-20T06:13:02.663Z,1011.81
2023-03-20T06:14:02.740Z,1011.84
2023-03-20T06:15:02.663Z,1011.86
2023-03-20T06:16:02.673Z,1011.85
2023-03-20T06:17:02.657Z,1011.87
2023-03-20T06:18:02.681Z,1011.87
2023-03-20T06:19:02.684Z,1011.92
2023-03-20T06:20:02.670Z,1011.86
2023-03-20T06:21:02.643Z,1011.90
2023-03-20T06:22:02.643Z,1011.90
2023-03-20T06:23:02.621Z,1011.95
2023-03-20T06:24:02.672Z,1011.93
2023-03-20T06:25:02.637Z,1011.90
2023-03-20T06:26:02.665Z,1011.88
2023-03-20T06:27:02.626Z,1011.86
2023-03-20T06:28:02.652Z,1011.85
2023-03-20T06:29:02.608Z,1011.81
2023-03-20T06:30:02.652Z,1011.83
2023-03-20T06:31:02.640Z,1011.85
2023-03-20T06:32:02.624Z,1011.83
2023-03-20T06:33:02.738Z,1011.83
2023-03-20T06:35:35.961Z,1011.91
2023-03-20T06:36:35.650Z,1011.91
2023-03-20T06:37:35.670Z,1011.92
2023-03-20T06:38:35.629Z,1011.94
2023-03-20T06:39:35.620Z,1011.96
2023-03-20T06:40:35.652Z,1011.94
2023-03-20T06:41:35.622Z,1011.99
2023-03-20T06:42:35.613Z,1011.97
2023-03-20T06:43:35.623Z,1012.04
2023-03-20T06:44:35.617Z,1011.99
2023-03-20T06:45:36.342Z,1011.99
2023-03-20T06:46:35.684Z,1012.04
2023-03-20T06:47:35.624Z,1012.09
2023-03-20T06:48:35.593Z,1012.08
2023-03-20T06:49:35.629Z,1012.12
2023-03-20T06:50:35.626Z,1012.17
2023-03-20T06:51:35.626Z,1012.15
2023-03-20T06:52:35.846Z,1012.20
2023-03-20T06:53:35.579Z,1012.16
2023-03-20T06:54:35.572Z,1012.12
2023-03-20T06:55:35.970Z,1012.12
2023-03-20T06:56:36.469Z,1012.14
2023-03-20T06:57:35.572Z,1012.17
2023-03-20T06:58:35.618Z,1012.20
2023-03-20T06:59:35.557Z,1012.22
2023-03-20T07:00:35.554Z,1012.22
2023-03-20T07:01:35.583Z,1012.23
2023-03-20T07:02:36.251Z,1012.24
2023-03-20T07:03:35.551Z,1012.29
2023-03-20T07:04:35.599Z,1012.27
2023-03-20T07:05:35.909Z,1012.23
2023-03-20T07:06:35.539Z,1012.25
2023-03-20T07:07:35.532Z,1012.29
2023-03-20T07:08:35.560Z,1012.26
2023-03-20T07:09:35.550Z,1012.26
2023-03-20T07:10:35.530Z,1012.27
2023-03-20T07:11:35.520Z,1012.30
2023-03-20T07:12:35.505Z,1012.25
2023-03-20T07:13:35.553Z,1012.23
2023-03-20T07:14:35.739Z,1012.26
2023-03-20T07:15:35.842Z,1012.24
2023-03-20T07:16:35.553Z,1012.24
2023-03-20T07:17:35.525Z,1012.26
2023-03-20T07:18:35.513Z,1012.25
2023-03-20T07:19:37.604Z,1012.25
2023-03-20T07:20:35.482Z,1012.27
2023-03-20T07:21:35.478Z,1012.28
2023-03-20T07:22:35.466Z,1012.31
2023-03-20T07:23:35.469Z,1012.30
2023-03-20T07:24:35.495Z,1012.34
2023-03-20T07:25:42.625Z,1012.37
2023-03-20T07:26:35.489Z,1012.35
2023-03-20T07:27:35.466Z,1012.38
2023-03-20T07:28:35.457Z,1012.37
2023-03-20T07:29:35.484Z,1012.40
2023-03-20T07:30:35.490Z,1012.40
2023-03-20T07:31:35.508Z,1012.42
2023-03-20T07:32:37.645Z,1012.46
2023-03-20T07:33:35.432Z,1012.42
2023-03-20T07:36:35.450Z,1012.48
2023-03-20T07:37:35.434Z,1012.43
2023-03-20T07:38:35.480Z,1012.44
2023-03-20T07:39:35.405Z,1012.41
2023-03-20T07:40:35.527Z,1012.44
2023-03-20T07:41:35.407Z,1012.43
2023-03-20T07:42:36.477Z,1012.43
2023-03-20T07:43:35.401Z,1012.39
2023-03-20T07:44:35.479Z,1012.45
2023-03-20T07:45:35.787Z,1012.43
2023-03-20T07:46:35.385Z,1012.41
2023-03-20T07:47:35.445Z,1012.40
2023-03-20T07:48:35.412Z,1012.39
2023-03-20T07:49:35.430Z,1012.41
2023-03-20T07:50:35.482Z,1012.45
2023-03-20T07:51:35.373Z,1012.44
2023-03-20T07:52:35.350Z,1012.46
2023-03-20T07:53:35.364Z,1012.40
2023-03-20T07:54:35.493Z,1012.46
2023-03-20T07:55:35.764Z,1012.47
2023-03-20T07:56:35.450Z,1012.42
2023-03-20T07:57:35.368Z,1012.47
2023-03-20T07:58:35.336Z,1012.46
2023-03-20T07:59:35.425Z,1012.43
2023-03-20T08:00:35.336Z,1012.48
2023-03-20T08:01:35.411Z,1012.49
2023-03-20T08:02:35.357Z,1012.50
2023-03-20T08:03:35.444Z,1012.49
2023-03-20T08:04:35.315Z,1012.44
2023-03-20T08:05:35.684Z,1012.52
2023-03-20T08:06:35.318Z,1012.46
2023-03-20T08:07:35.378Z,1012.47
2023-03-20T08:08:35.341Z,1012.53
2023-03-20T08:09:35.340Z,1012.53
2023-03-20T08:10:35.351Z,1012.52
2023-03-20T08:11:35.440Z,1012.51
2023-03-20T08:12:35.327Z,1012.55
2023-03-20T08:13:35.591Z,1012.57
2023-03-20T08:14:35.405Z,1012.56
2023-03-20T08:15:35.681Z,1012.54
2023-03-20T08:16:35.339Z,1012.57
2023-03-20T08:17:35.488Z,1012.57
2023-03-20T08:18:35.366Z,1012.58
2023-03-20T08:19:35.357Z,1012.52
2023-03-20T08:21:35.348Z,1012.55
2023-03-20T08:23:35.286Z,1012.58
2023-03-20T08:24:35.311Z,1012.56
2023-03-20T08:25:35.624Z,1012.55
2023-03-20T08:26:35.318Z,1012.54
2023-03-20T08:27:35.285Z,1012.52
2023-03-20T08:28:48.199Z,1012.54
2023-03-20T08:29:35.583Z,1012.52
2023-03-20T08:30:37.887Z,1012.55
2023-03-20T08:31:35.290Z,1012.56
2023-03-20T08:32:36.449Z,1012.54
2023-03-20T08:33:35.374Z,1012.53
2023-03-20T08:34:35.623Z,1012.53
2023-03-20T08:35:35.305Z,1012.52
2023-03-20T08:36:35.326Z,1012.49
2023-03-20T08:37:35.274Z,1012.49
2023-03-20T08:38:35.215Z,1012.52
2023-03-20T08:39:35.262Z,1012.52
2023-03-20T08:40:35.357Z,1012.51
2023-03-20T08:41:35.275Z,1012.50
2023-03-20T08:42:35.225Z,1012.54
2023-03-20T08:43:35.206Z,1012.52
2023-03-20T08:44:35.214Z,1012.53
2023-03-20T08:45:35.569Z,1012.55
2023-03-20T08:46:35.213Z,1012.55
2023-03-20T08:47:35.195Z,1012.54
2023-03-20T08:48:35.236Z,1012.59
2023-03-20T08:49:35.201Z,1012.56
2023-03-20T08:50:35.223Z,1012.58
2023-03-20T08:51:35.224Z,1012.59
2023-03-20T08:52:35.199Z,1012.62
2023-03-20T08:53:35.208Z,1012.59
2023-03-20T08:54:35.191Z,1012.65
2023-03-20T08:55:35.860Z,1012.51
2023-03-20T08:56:35.243Z,1012.58
2023-03-20T08:57:35.245Z,1012.56
2023-03-20T08:58:35.169Z,1012.62
2023-03-20T08:59:35.209Z,1012.57
2023-03-20T09:00:35.192Z,1012.58
2023-03-20T09:01:48.363Z,1012.53
2023-03-20T09:02:35.282Z,1012.60
2023-03-20T09:03:35.165Z,1012.61
2023-03-20T09:05:35.827Z,1012.59
2023-03-20T09:06:35.146Z,1012.61
2023-03-20T09:07:35.139Z,1012.60
2023-03-20T09:08:35.167Z,1012.55
2023-03-20T09:09:35.137Z,1012.63
2023-03-20T09:10:35.326Z,1012.66
2023-03-20T09:11:35.221Z,1012.60
2023-03-20T09:12:35.211Z,1012.68
2023-03-20T09:13:35.144Z,1012.64
2023-03-20T09:14:35.194Z,1012.65
2023-03-20T09:16:35.251Z,1012.63
2023-03-20T09:17:35.126Z,1012.59
2023-03-20T09:18:35.223Z,1012.69
2023-03-20T09:22:40.731Z,1012.68
2023-03-20T09:23:40.840Z,1012.67
2023-03-20T09:24:40.712Z,1012.72
2023-03-20T09:25:40.744Z,1012.72
2023-03-20T09:26:40.738Z,1012.76
2023-03-20T09:27:40.702Z,1012.75
2023-03-20T09:28:40.718Z,1012.73
2023-03-20T09:29:40.704Z,1012.73
2023-03-20T09:30:40.707Z,1012.73
2023-03-20T09:31:40.716Z,1012.77
2023-03-20T09:32:40.797Z,1012.74
2023-03-20T09:33:40.694Z,1012.73
2023-03-20T09:34:40.704Z,1012.77
2023-03-20T09:35:43.036Z,1012.71
2023-03-20T09:36:40.711Z,1012.75
2023-03-20T09:37:40.680Z,1012.72
2023-03-20T09:38:40.679Z,1012.78
2023-03-20T09:39:40.686Z,1012.77
2023-03-20T09:40:40.697Z,1012.76
2023-03-20T09:41:55.910Z,1012.80
2023-03-20T09:42:40.809Z,1012.76
2023-03-20T09:43:40.660Z,1012.73
2023-03-20T09:44:41.503Z,1012.71
2023-03-20T09:45:40.690Z,1012.72
2023-03-20T09:46:40.743Z,1012.71
2023-03-20T09:47:40.688Z,1012.69
2023-03-20T09:48:40.757Z,1012.68
2023-03-20T09:49:40.668Z,1012.72
2023-03-20T09:50:40.661Z,1012.67
2023-03-20T09:51:40.668Z,1012.71
2023-03-20T09:52:40.652Z,1012.68
2023-03-20T09:53:40.655Z,1012.69
2023-03-20T09:54:53.731Z,1012.73
2023-03-20T09:55:40.757Z,1012.75
2023-03-20T09:56:40.631Z,1012.76
2023-03-20T09:57:40.652Z,1012.73
2023-03-20T09:58:40.642Z,1012.75
2023-03-20T09:59:40.701Z,1012.77
2023-03-20T10:00:40.636Z,1012.78
2023-03-20T10:01:40.759Z,1012.76
2023-03-20T10:13:12.387Z,1012.84
2023-03-20T10:14:13.151Z,1012.80
2023-03-20T10:15:12.301Z,1012.77
2023-03-20T10:16:12.504Z,1012.77
2023-03-20T10:17:12.310Z,1012.76
2023-03-20T10:18:12.318Z,1012.76
2023-03-20T10:19:12.280Z,1012.70
2023-03-20T10:20:12.284Z,1012.72
2023-03-20T10:21:12.410Z,1012.70
2023-03-20T10:22:12.318Z,1012.67
2023-03-20T10:23:12.298Z,1012.63
2023-03-20T10:24:12.273Z,1012.54
2023-03-20T10:25:12.267Z,1012.50
2023-03-20T10:26:12.423Z,1012.49
2023-03-20T10:27:12.613Z,1012.46
2023-03-20T10:28:13.040Z,1012.36
2023-03-20T10:29:12.310Z,1012.30
2023-03-20T10:30:12.251Z,1012.31
2023-03-20T10:31:12.392Z,1012.30
2023-03-20T10:32:12.331Z,1012.31
2023-03-20T10:33:12.458Z,1012.35
2023-03-20T10:34:12.380Z,1012.29
2023-03-20T10:35:12.314Z,1012.38
2023-03-20T10:36:12.315Z,1012.42
2023-03-20T10:37:13.298Z,1012.42
2023-03-20T10:38:12.353Z,1012.45
2023-03-20T10:39:12.265Z,1012.46
2023-03-20T10:40:12.269Z,1012.44
2023-03-20T10:41:12.296Z,1012.47
2023-03-20T10:42:12.302Z,1012.48
2023-03-20T10:43:12.242Z,1012.47
2023-03-20T10:44:12.245Z,1012.55
2023-03-20T10:45:13.103Z,1012.51
2023-03-20T10:46:12.251Z,1012.51
2023-03-20T10:47:12.325Z,1012.50
2023-03-20T10:48:12.263Z,1012.47
2023-03-20T10:49:12.360Z,1012.51
2023-03-20T10:50:12.226Z,1012.50
2023-03-20T10:51:12.228Z,1012.53
2023-03-20T10:52:12.234Z,1012.51
2023-03-20T10:53:12.233Z,1012.45
2023-03-20T10:54:12.240Z,1012.47
2023-03-20T10:55:12.208Z,1012.47
2023-03-20T10:56:12.212Z,1012.45
2023-03-20T10:57:12.225Z,1012.52
2023-03-20T10:58:12.263Z,1012.48
2023-03-20T10:59:12.236Z,1012.45
2023-03-20T11:00:12.239Z,1012.45
2023-03-20T11:01:12.374Z,1012.46
2023-03-20T11:02:12.265Z,1012.45
2023-03-20T11:03:12.230Z,1012.41
2023-03-20T11:04:12.321Z,1012.43
2023-03-20T11:05:12.219Z,1012.43
2023-03-20T11:06:12.217Z,1012.42
2023-03-20T11:07:12.233Z,1012.43
2023-03-20T11:08:12.254Z,1012.46
2023-03-20T11:09:12.216Z,1012.45
2023-03-20T11:10:12.275Z,1012.43
2023-03-20T11:11:12.206Z,1012.41
2023-03-20T11:12:12.216Z,1012.46
2023-03-20T11:13:12.190Z,1012.41
2023-03-20T11:14:12.206Z,1012.39
2023-03-20T11:15:12.274Z,1012.40
2023-03-20T11:16:12.264Z,1012.36
2023-03-20T11:17:12.236Z,1012.37
2023-03-20T11:18:12.197Z,1012.33
2023-03-20T11:19:12.227Z,1012.34
2023-03-20T11:20:12.211Z,1012.28
2023-03-20T11:21:12.173Z,1012.29
2023-03-20T11:22:12.178Z,1012.25
2023-03-20T11:23:12.183Z,1012.23
2023-03-20T11:24:12.195Z,1012.18
2023-03-20T11:25:12.199Z,1012.23
2023-03-20T11:26:12.163Z,1012.21
2023-03-20T11:27:12.172Z,1012.24
2023-03-20T11:28:12.187Z,1012.22
2023-03-20T11:29:12.186Z,1012.17
2023-03-20T11:30:12.200Z,1012.20
2023-03-20T11:31:12.323Z,1012.18
2023-03-20T11:32:12.249Z,1012.19
2023-03-20T11:33:12.259Z,1012.18
2023-03-20T11:34:12.195Z,1012.14
2023-03-20T11:35:12.184Z,1012.16
2023-03-20T11:36:12.257Z,1012.14
2023-03-20T11:37:12.181Z,1012.13
2023-03-20T11:38:12.188Z,1012.13
2023-03-20T11:39:12.158Z,1012.10
2023-03-20T11:40:12.169Z,1012.14
2023-03-20T11:41:12.156Z,1012.13
2023-03-20T11:42:12.151Z,1012.10
2023-03-20T11:43:12.158Z,1012.09
2023-03-20T11:44:12.161Z,1012.05
2023-03-20T11:45:12.175Z,1012.08
2023-03-20T11:46:12.238Z,1012.05
2023-03-20T11:47:12.160Z,1012.07
2023-03-20T11:48:12.151Z,1012.05
2023-03-20T11:49:12.174Z,1012.11
2023-03-20T11:50:12.151Z,1012.03
2023-03-20T11:51:12.141Z,1012.10
2023-03-20T11:52:12.166Z,1012.12
2023-03-20T11:53:12.130Z,1012.08
2023-03-20T11:54:12.146Z,1012.08
2023-03-20T11:55:12.161Z,1012.08
2023-03-20T11:56:12.131Z,1012.10
2023-03-20T11:57:12.164Z,1012.08
2023-03-20T11:58:12.233Z,1012.12
2023-03-20T11:59:12.155Z,1012.15
2023-03-20T12:00:12.184Z,1012.16
2023-03-20T12:01:12.148Z,1012.19
2023-03-20T12:02:12.141Z,1012.17
2023-03-20T12:03:12.178Z,1012.19
2023-03-20T12:04:12.153Z,1012.17
2023-03-20T12:05:13.644Z,1012.15
2023-03-20T12:06:12.122Z,1012.18
2023-03-20T12:07:12.121Z,1012.18
2023-03-20T12:08:12.146Z,1012.19
2023-03-20T12:09:12.125Z,1012.13
2023-03-20T12:10:12.124Z,1012.17
2023-03-20T12:11:12.171Z,1012.18
2023-03-20T12:12:12.165Z,1012.15
2023-03-20T12:13:12.118Z,1012.15
2023-03-20T12:14:12.123Z,1012.17
2023-03-20T12:15:12.126Z,1012.17
2023-03-20T12:16:12.204Z,1012.15
2023-03-20T12:17:12.175Z,1012.13
2023-03-20T12:18:12.116Z,1012.11
2023-03-20T12:19:12.105Z,1012.12
2023-03-20T12:20:12.122Z,1012.10
2023-03-20T12:21:12.279Z,1012.07
2023-03-20T12:22:12.176Z,1012.09
2023-03-20T12:23:12.108Z,1012.10
2023-03-20T12:24:12.099Z,1012.08
2023-03-20T12:25:12.085Z,1012.08
2023-03-20T12:26:12.107Z,1012.07
2023-03-20T12:27:12.107Z,1012.09
2023-03-20T12:28:12.145Z,1012.07
2023-03-20T12:29:12.087Z,1012.12
2023-03-20T12:30:12.084Z,1012.15
2023-03-20T12:31:12.144Z,1012.10
2023-03-20T12:32:12.073Z,1012.10
2023-03-20T12:33:12.178Z,1012.11
2023-03-20T12:34:12.094Z,1012.10
2023-03-20T12:35:12.085Z,1012.12
2023-03-20T12:36:12.116Z,1012.10
2023-03-20T12:37:12.083Z,1012.11
2023-03-20T12:38:12.121Z,1012.07
2023-03-20T12:39:12.097Z,1012.06
2023-03-20T12:40:12.074Z,1012.07
2023-03-20T12:41:12.065Z,1012.08
2023-03-20T12:42:12.086Z,1012.01
2023-03-20T12:43:12.048Z,1011.99
2023-03-20T12:44:12.067Z,1011.98
2023-03-20T12:45:12.065Z,1012.02
2023-03-20T12:46:12.124Z,1012.01
2023-03-20T12:47:12.074Z,1012.08
2023-03-20T12:48:12.073Z,1011.99
2023-03-20T12:49:12.043Z,1012.03
2023-03-20T12:50:12.108Z,1011.99
2023-03-20T12:51:13.676Z,1012.01
2023-03-20T12:52:12.039Z,1012.04
2023-03-20T12:53:12.041Z,1011.99
2023-03-20T12:54:12.040Z,1012.03
2023-03-20T12:55:12.037Z,1012.01
2023-03-20T12:56:12.037Z,1012.06
2023-03-20T12:57:12.039Z,1012.08
2023-03-20T12:58:12.035Z,1012.02
2023-03-20T12:59:12.025Z,1012.00
2023-03-20T13:00:12.101Z,1012.01
2023-03-20T13:01:12.050Z,1012.01
2023-03-20T13:02:12.023Z,1012.04
2023-03-20T13:03:12.100Z,1012.00
2023-03-20T13:04:12.005Z,1012.01
2023-03-20T13:05:12.033Z,1011.97
2023-03-20T13:06:11.995Z,1011.98
2023-03-20T13:07:12.014Z,1011.94
2023-03-20T13:08:12.004Z,1011.95
2023-03-20T13:09:12.127Z,1011.91
2023-03-20T13:10:12.013Z,1011.92
2023-03-20T13:11:12.017Z,1011.94
2023-03-20T13:16:17.637Z,1011.84
2023-03-20T13:17:17.549Z,1011.89
2023-03-20T13:18:17.556Z,1011.86
2023-03-20T13:19:17.557Z,1011.86
2023-03-20T13:20:17.559Z,1011.88
2023-03-20T13:21:17.603Z,1011.86
2023-03-20T13:22:17.566Z,1011.88
2023-03-20T13:24:17.566Z,1011.86
2023-03-20T13:25:17.532Z,1011.85
2023-03-20T13:26:17.549Z,1011.85
2023-03-20T13:27:17.559Z,1011.83
2023-03-20T13:28:17.552Z,1011.82
2023-03-20T13:29:17.542Z,1011.86
2023-03-20T13:30:17.551Z,1011.85
2023-03-20T13:31:17.553Z,1011.83
2023-03-20T13:32:17.565Z,1011.83
2023-03-20T13:33:17.603Z,1011.80
2023-03-20T13:34:17.506Z,1011.83
2023-03-20T13:35:17.509Z,1011.82
2023-03-20T13:36:17.508Z,1011.75
2023-03-20T13:37:23.737Z,1011.77
2023-03-20T13:38:17.514Z,1011.80
2023-03-20T13:39:17.508Z,1011.76
2023-03-20T13:40:17.510Z,1011.76
2023-03-20T13:41:17.495Z,1011.78
2023-03-20T13:42:17.496Z,1011.76
2023-03-20T13:43:17.499Z,1011.77
2023-03-20T13:44:17.510Z,1011.76
2023-03-20T13:45:17.485Z,1011.74
2023-03-20T13:46:17.474Z,1011.76
2023-03-20T13:47:17.511Z,1011.76
2023-03-20T13:48:17.602Z,1011.77
2023-03-20T13:49:17.463Z,1011.75
2023-03-20T13:50:17.499Z,1011.76
2023-03-20T13:51:17.458Z,1011.73
2023-03-20T13:52:17.469Z,1011.72
2023-03-20T13:53:17.473Z,1011.70
2023-03-20T13:54:17.442Z,1011.71
2023-03-20T13:55:17.470Z,1011.67
2023-03-20T13:56:17.476Z,1011.67
2023-03-20T13:57:17.465Z,1011.69
2023-03-20T13:58:17.463Z,1011.70
2023-03-20T13:59:17.459Z,1011.63
2023-03-20T14:00:17.474Z,1011.67
2023-03-20T14:01:17.571Z,1011.67
2023-03-20T14:02:17.448Z,1011.66
2023-03-20T14:03:17.440Z,1011.65
2023-03-20T14:04:17.511Z,1011.68
2023-03-20T14:05:17.420Z,1011.58
2023-03-20T14:06:17.418Z,1011.62
2023-03-20T14:07:17.432Z,1011.62
2023-03-20T14:08:17.407Z,1011.63
2023-03-20T14:09:17.415Z,1011.60
2023-03-20T14:10:17.442Z,1011.58
2023-03-20T14:11:17.418Z,1011.56
2023-03-20T14:12:17.426Z,1011.51
2023-03-20T14:13:17.429Z,1011.60
2023-03-20T14:14:17.442Z,1011.60
2023-03-20T14:15:17.398Z,1011.58
2023-03-20T14:16:17.387Z,1011.60
2023-03-20T14:17:17.384Z,1011.59
2023-03-20T14:18:17.388Z,1011.62
2023-03-20T14:19:17.376Z,1011.63
2023-03-20T14:20:17.389Z,1011.62
2023-03-20T14:21:17.387Z,1011.65
2023-03-20T14:22:17.393Z,1011.62
2023-03-20T14:23:17.436Z,1011.62
2023-03-20T14:24:17.391Z,1011.66
2023-03-20T14:25:17.367Z,1011.66
2023-03-20T14:26:17.349Z,1011.65
2023-03-20T14:27:17.364Z,1011.63
2023-03-20T14:28:17.362Z,1011.64
2023-03-20T14:29:17.347Z,1011.64
2023-03-20T14:30:17.337Z,1011.64
2023-03-20T14:31:17.360Z,1011.57
2023-03-20T14:32:17.367Z,1011.61
2023-03-20T14:33:17.504Z,1011.59
2023-03-20T14:34:17.364Z,1011.55
2023-03-20T14:35:17.327Z,1011.58
2023-03-20T14:36:17.338Z,1011.57
2023-03-20T14:37:17.319Z,1011.57
2023-03-20T14:38:17.313Z,1011.58
2023-03-20T14:39:17.315Z,1011.53
2023-03-20T14:40:17.319Z,1011.53
2023-03-20T14:41:17.340Z,1011.51
2023-03-20T14:42:17.313Z,1011.54
2023-03-20T14:43:17.321Z,1011.54
2023-03-20T14:44:17.383Z,1011.55
2023-03-20T14:45:17.294Z,1011.50
2023-03-20T14:46:17.296Z,1011.54
2023-03-20T14:47:17.286Z,1011.55
2023-03-20T14:48:17.288Z,1011.51
2023-03-20T14:49:17.310Z,1011.52
2023-03-20T14:50:17.274Z,1011.53
2023-03-20T14:51:17.286Z,1011.52
2023-03-20T14:52:17.274Z,1011.53
2023-03-20T14:53:17.304Z,1011.53
2023-03-20T14:54:17.290Z,1011.53
2023-03-20T14:55:17.264Z,1011.53
2023-03-20T14:56:17.324Z,1011.50
2023-03-20T14:57:17.253Z,1011.48
2023-03-20T14:58:17.269Z,1011.52
2023-03-20T14:59:17.254Z,1011.50
2023-03-20T15:00:17.259Z,1011.50
2023-03-20T15:01:19.746Z,1011.47
2023-03-20T15:02:17.246Z,1011.48
2023-03-20T15:03:17.249Z,1011.49
2023-03-20T15:04:17.250Z,1011.47
2023-03-20T15:05:17.257Z,1011.48
2023-03-20T15:06:17.232Z,1011.49
2023-03-20T15:07:17.228Z,1011.51
2023-03-20T15:08:17.213Z,1011.49
2023-03-20T15:09:17.232Z,1011.47
2023-03-20T15:10:19.430Z,1011.50
2023-03-20T15:11:17.213Z,1011.46
2023-03-20T15:12:17.209Z,1011.44
2023-03-20T15:13:17.209Z,1011.45
2023-03-20T15:14:17.219Z,1011.39
2023-03-20T15:15:17.225Z,1011.43
2023-03-20T15:16:17.267Z,1011.37
2023-03-20T15:17:17.196Z,1011.39
2023-03-20T15:18:17.195Z,1011.38
2023-03-20T15:19:17.195Z,1011.36
2023-03-20T15:20:17.195Z,1011.33
2023-03-20T15:21:17.179Z,1011.35
2023-03-20T15:22:17.182Z,1011.36
2023-03-20T15:23:17.198Z,1011.39
2023-03-20T15:24:17.181Z,1011.30
2023-03-20T15:25:17.182Z,1011.32
2023-03-20T15:26:17.165Z,1011.33
2023-03-20T15:27:17.172Z,1011.30
2023-03-20T15:28:19.527Z,1011.31
2023-03-20T15:29:17.151Z,1011.29
2023-03-20T15:30:17.156Z,1011.32
2023-03-20T15:31:17.155Z,1011.31
2023-03-20T15:32:17.163Z,1011.32
2023-03-20T15:33:17.181Z,1011.31
2023-03-20T15:34:17.183Z,1011.31
2023-03-20T15:35:17.259Z,1011.31
2023-03-20T15:36:17.253Z,1011.32
2023-03-20T15:37:17.178Z,1011.34
2023-03-20T15:38:17.133Z,1011.32
2023-03-20T15:39:17.150Z,1011.33
2023-03-20T15:40:17.150Z,1011.35
2023-03-20T15:41:17.121Z,1011.33
2023-03-20T15:42:17.148Z,1011.27
2023-03-20T15:43:17.157Z,1011.34
2023-03-20T15:44:17.110Z,1011.34
2023-03-20T15:45:17.118Z,1011.32
2023-03-20T15:46:19.027Z,1011.30
2023-03-20T15:47:17.127Z,1011.29
2023-03-20T15:48:17.109Z,1011.31
2023-03-20T15:49:17.090Z,1011.31
2023-03-20T15:50:17.115Z,1011.27
2023-03-20T15:51:17.132Z,1011.30
2023-03-20T15:52:17.093Z,1011.28
2023-03-20T15:53:17.097Z,1011.25
2023-03-20T15:54:17.075Z,1011.21
2023-03-20T15:55:17.116Z,1011.21
2023-03-20T15:56:19.005Z,1011.22
2023-03-20T15:57:17.086Z,1011.24
2023-03-20T15:58:17.097Z,1011.26
2023-03-20T15:59:17.086Z,1011.24
2023-03-20T16:00:17.109Z,1011.19
2023-03-20T16:12:21.316Z,1011.18
2023-03-20T16:13:21.302Z,1011.16
2023-03-20T16:14:21.264Z,1011.19
2023-03-20T16:15:21.292Z,1011.17
2023-03-20T16:16:21.367Z,1011.15
2023-03-20T16:17:21.251Z,1011.17
2023-03-20T16:18:21.256Z,1011.20
2023-03-20T16:19:21.231Z,1011.17
2023-03-20T16:20:21.299Z,1011.17
2023-03-20T16:21:21.209Z,1011.17
2023-03-20T16:22:21.231Z,1011.18
2023-03-20T16:23:21.215Z,1011.16
2023-03-20T16:24:21.330Z,1011.17
2023-03-20T16:25:21.189Z,1011.19
2023-03-20T16:26:21.235Z,1011.18
2023-03-20T16:27:21.186Z,1011.21
2023-03-20T16:28:21.196Z,1011.23
2023-03-20T16:29:21.196Z,1011.23
2023-03-20T16:30:21.164Z,1011.24
2023-03-20T16:31:21.243Z,1011.22
2023-03-20T16:32:21.160Z,1011.26
2023-03-20T16:33:21.220Z,1011.29
2023-03-20T16:34:21.192Z,1011.25
2023-03-20T16:35:21.147Z,1011.30
2023-03-20T16:36:21.155Z,1011.31
2023-03-20T16:37:21.142Z,1011.28
2023-03-20T16:38:21.145Z,1011.33
2023-03-20T16:39:21.189Z,1011.30
2023-03-20T16:40:21.117Z,1011.31
2023-03-20T16:41:21.127Z,1011.33
2023-03-20T16:42:21.124Z,1011.32
2023-03-20T16:43:21.131Z,1011.28
2023-03-20T16:44:21.129Z,1011.32
2023-03-20T16:45:21.102Z,1011.27
2023-03-20T16:46:21.194Z,1011.26